Etusivu
METAR-TAF:

METAR-TAF

Lentoasemat :

Boise, Idaho, Yhdysvallat

Leveyspiiri: 43-34-00N, Pituuspiiri: 116-14-26W, korkeus merenpinnasta: 871 m

Tämänhetkinen sää

Tämä raportti tehtiin 16 minuuttia sitten, kello 18.53 UTC
Tuuli 6 kn etelästä/kaakosta
Lämpötila 1°C
Kosteus 64%
Ilmanpaine 1034 hPa
Näkyvyys: 16.1 km
selkeää

METAR: KBOI 191853Z 16006KT 10SM CLR 01/M05 A3052 RMK AO2 SLP353 T00111050

Aika: 12:09 (19:09 UTC)

Sääennuste

Tämä raportti tehtiin 1 tunti ja 16 minuuttia sitten, kello 17.53 UTC
Ennuste voimassa 19. päivästä klo 18 UTC - 20. päivään klo 18 UTC
Tuuli 5 kn etelästä/kaakosta
Näkyvyys: 10 km
Hajanaisia pilviä 25000 ft:n korkeudessa
From 20. päivästä klo 0600 UTC
Tuuli 6 kn kaakosta
Näkyvyys: 10 km
Hajonneita pilviä 15000 ft:n korkeudessa

TAF: KBOI 191753Z 1918/2018 16005KT P6SM SCT250 FM200600 14006KT P6SM BKN150

Säähavainnot ja -ennusteet yli 4000 lentoasemalta (METAR- ja TAF-raportit).

Käytössä olevat sääasemat on merkitty karttaan keltaisilla ja punaisilla pisteillä.

Aseta hiiri pisteen päälle nähdäksesi sääaseman nimen.

Klikkaa sitten nähdäksesi säähavainnot ja -ennusteet.

Kartan vaihtaminen: klikkaa mustalla rastilla varustettuja vihreitä pisteitä, niin voit zoomata sisään; viivalla varustettua vihreää pistettä, niin voit zoomata ulos tai vihreitä nuolia, niin pääset viereisille kartoille.


METAR-TAF: